Time;durP1;ratioP1;P1;durP2;ratioP2;P2;SDS_P1;SDS_P2;PMS_P1;PMS_P2;Temp;Humidity;BMP_temperature;BMP_pressure;BME280_temperature;BME280_humidity;BME280_pressure;Samples;Min_cycle;Max_cycle;Signal;HPM_P1;HPM_P2
2024/01/24 00:00:30;;;;;;;33.90;16.15;;;0.60;99.90;;;;;;5072095;28;20016;-73
2024/01/24 00:02:56;;;;;;;40.97;17.52;;;0.60;99.90;;;;;;5070769;28;20063;-72
2024/01/24 00:05:22;;;;;;;31.55;16.20;;;0.60;99.90;;;;;;5072043;28;20359;-72
2024/01/24 00:07:47;;;;;;;34.47;14.57;;;0.50;99.90;;;;;;5069513;28;20012;-73
2024/01/24 00:10:13;;;;;;;34.83;14.68;;;0.50;99.90;;;;;;5067149;28;20029;-79
2024/01/24 00:12:39;;;;;;;33.17;15.13;;;0.40;99.90;;;;;;5066493;28;20363;-73
2024/01/24 00:15:05;;;;;;;35.47;16.50;;;0.40;99.90;;;;;;5071598;28;20021;-73
2024/01/24 00:17:30;;;;;;;36.00;15.65;;;0.40;99.90;;;;;;5070265;28;20028;-73
2024/01/24 00:19:56;;;;;;;35.22;17.08;;;0.40;99.90;;;;;;5073503;28;20089;-73
2024/01/24 00:22:22;;;;;;;29.35;15.52;;;0.30;99.90;;;;;;5072538;28;20068;-73
2024/01/24 00:24:47;;;;;;;39.88;19.80;;;0.30;99.90;;;;;;5073666;28;20366;-79
2024/01/24 00:27:13;;;;;;;40.30;16.15;;;0.20;99.90;;;;;;5072525;28;20710;-79
2024/01/24 00:29:39;;;;;;;39.05;17.15;;;0.10;99.90;;;;;;5075021;28;20031;-79
2024/01/24 00:32:05;;;;;;;37.78;17.80;;;0.10;99.90;;;;;;5074063;28;20039;-78
2024/01/24 00:34:31;;;;;;;34.58;16.02;;;0.00;99.90;;;;;;5073820;28;20017;-72
2024/01/24 00:36:56;;;;;;;35.35;15.50;;;0.00;99.90;;;;;;5073627;28;20017;-72
2024/01/24 00:39:22;;;;;;;36.20;15.15;;;-0.10;99.90;;;;;;5074885;28;20032;-75
2024/01/24 00:41:48;;;;;;;49.92;24.35;;;-0.10;99.90;;;;;;5073514;28;20024;-73
2024/01/24 00:44:14;;;;;;;67.95;30.50;;;-0.10;99.90;;;;;;5065047;28;20032;-73
2024/01/24 00:46:40;;;;;;;47.75;24.88;;;-0.20;99.90;;;;;;5054657;28;20017;-78
2024/01/24 00:49:10;;;;;;;55.45;26.38;;;-0.20;99.90;;;;;;5054674;28;20029;-78
2024/01/24 00:51:36;;;;;;;49.92;23.63;;;-0.20;99.90;;;;;;5059039;28;20066;-78
2024/01/24 00:54:02;;;;;;;40.72;20.80;;;-0.30;99.90;;;;;;5064001;28;20024;-79
2024/01/24 00:56:28;;;;;;;46.42;21.17;;;-0.30;99.90;;;;;;5070938;28;20020;-78
2024/01/24 00:58:53;;;;;;;46.72;22.02;;;-0.40;99.90;;;;;;5075445;28;20020;-78
2024/01/24 01:01:20;;;;;;;46.75;22.55;;;-0.40;99.90;;;;;;5073171;28;20356;-73
2024/01/24 01:03:46;;;;;;;44.03;23.80;;;-0.40;99.90;;;;;;5075204;28;20071;-77
2024/01/24 01:06:11;;;;;;;46.42;23.80;;;-0.40;99.90;;;;;;5074577;28;20523;-73
2024/01/24 01:08:37;;;;;;;46.50;25.20;;;-0.50;99.90;;;;;;5074861;28;20119;-77
2024/01/24 01:11:05;;;;;;;45.65;21.77;;;-0.50;99.90;;;;;;5071657;28;20028;-78
2024/01/24 01:13:33;;;;;;;43.03;21.92;;;-0.50;99.90;;;;;;5074638;28;20021;-78
2024/01/24 01:15:58;;;;;;;47.92;21.85;;;-0.60;99.90;;;;;;5069559;28;20020;-72
2024/01/24 01:18:24;;;;;;;50.53;24.95;;;-0.60;99.90;;;;;;5073158;28;20052;-73
2024/01/24 01:20:50;;;;;;;54.35;25.38;;;-0.60;99.90;;;;;;5073088;28;20469;-78
2024/01/24 01:23:16;;;;;;;56.33;22.95;;;-0.60;99.90;;;;;;5073446;28;20047;-77
2024/01/24 01:25:41;;;;;;;43.08;22.48;;;-0.70;99.90;;;;;;5074225;28;20436;-78
2024/01/24 01:28:07;;;;;;;45.20;22.05;;;-0.70;99.90;;;;;;5074968;28;20485;-78
2024/01/24 01:30:33;;;;;;;46.00;22.70;;;-0.80;99.90;;;;;;5073616;28;20474;-78
2024/01/24 01:32:59;;;;;;;44.55;23.33;;;-0.80;99.90;;;;;;5073648;28;20021;-72
2024/01/24 01:35:25;;;;;;;45.10;23.95;;;-0.80;99.90;;;;;;5074064;28;20023;-73
2024/01/24 01:37:50;;;;;;;46.03;23.70;;;-0.80;99.90;;;;;;5073377;28;20024;-73
2024/01/24 01:40:16;;;;;;;51.42;24.48;;;-0.80;99.90;;;;;;5074015;28;20016;-73
2024/01/24 01:42:44;;;;;;;52.47;24.70;;;-0.90;99.90;;;;;;5074038;28;20094;-78
2024/01/24 01:45:09;;;;;;;55.05;25.48;;;-0.90;99.90;;;;;;5060421;28;20040;-72
2024/01/24 01:47:35;;;;;;;60.40;26.58;;;-0.90;99.90;;;;;;5074312;28;20114;-72
2024/01/24 01:50:04;;;;;;;53.97;24.55;;;-0.90;99.90;;;;;;5070283;28;20467;-73
2024/01/24 01:52:31;;;;;;;59.42;26.80;;;-0.90;99.90;;;;;;5065341;28;20025;-77
2024/01/24 01:54:56;;;;;;;53.42;25.25;;;-0.90;99.90;;;;;;5072727;28;20488;-75
2024/01/24 01:57:22;;;;;;;38.55;21.17;;;-0.90;99.90;;;;;;5074590;28;20056;-78
2024/01/24 01:59:48;;;;;;;60.58;30.10;;;-0.90;99.90;;;;;;5072439;28;20016;-80
2024/01/24 02:02:15;;;;;;;65.63;31.88;;;-0.90;99.90;;;;;;5073671;28;20503;-77
2024/01/24 02:04:41;;;;;;;51.40;24.83;;;-0.80;99.90;;;;;;5071567;28;20016;-72
2024/01/24 02:07:07;;;;;;;40.38;21.58;;;-0.80;99.90;;;;;;5073007;28;20363;-73
2024/01/24 02:09:34;;;;;;;47.83;23.52;;;-0.80;99.90;;;;;;5073645;28;20042;-77
2024/01/24 02:11:59;;;;;;;31.65;17.45;;;-0.80;99.90;;;;;;5072382;28;20104;-73
2024/01/24 02:14:25;;;;;;;34.92;17.02;;;-0.80;99.90;;;;;;5071768;28;20050;-78
2024/01/24 02:16:51;;;;;;;30.10;15.18;;;-0.80;99.90;;;;;;5074069;28;20021;-78
2024/01/24 02:19:16;;;;;;;37.70;15.38;;;-0.70;99.90;;;;;;5072885;28;20052;-78
2024/01/24 02:21:42;;;;;;;30.75;16.40;;;-0.70;99.90;;;;;;5072947;28;20056;-77
2024/01/24 02:24:09;;;;;;;35.72;18.98;;;-0.70;99.90;;;;;;5071840;28;20035;-73
2024/01/24 02:26:35;;;;;;;27.90;14.63;;;-0.70;99.90;;;;;;5072096;28;20389;-78
2024/01/24 02:29:01;;;;;;;31.08;15.55;;;-0.70;99.90;;;;;;5071281;28;20032;-78
2024/01/24 02:31:26;;;;;;;30.77;14.88;;;-0.60;99.90;;;;;;5073103;28;20024;-73
2024/01/24 02:33:52;;;;;;;30.65;15.35;;;-0.60;99.90;;;;;;5071060;28;20126;-78
2024/01/24 02:36:18;;;;;;;31.58;15.95;;;-0.60;99.90;;;;;;5073602;28;20470;-73
2024/01/24 02:38:43;;;;;;;32.78;16.38;;;-0.60;99.90;;;;;;5072511;28;20528;-73
2024/01/24 02:41:09;;;;;;;29.13;14.65;;;-0.60;99.90;;;;;;5072358;28;20382;-78
2024/01/24 02:43:35;;;;;;;25.98;15.13;;;-0.60;99.90;;;;;;5066290;28;20402;-78
2024/01/24 02:46:01;;;;;;;28.35;15.65;;;-0.60;99.90;;;;;;5064346;28;20482;-72
2024/01/24 02:48:27;;;;;;;28.50;15.63;;;-0.60;99.90;;;;;;5071373;28;20051;-78
2024/01/24 02:50:53;;;;;;;28.73;13.32;;;-0.60;99.90;;;;;;5072001;28;20028;-73
2024/01/24 02:53:19;;;;;;;25.23;12.60;;;-0.60;99.90;;;;;;5068438;28;20075;-78
2024/01/24 02:55:45;;;;;;;26.35;12.48;;;-0.60;99.90;;;;;;5073256;28;20424;-72
2024/01/24 02:58:11;;;;;;;26.25;11.98;;;-0.70;99.90;;;;;;5067715;28;20048;-78
2024/01/24 03:00:36;;;;;;;29.77;12.15;;;-0.60;99.90;;;;;;5052280;28;20425;-78
2024/01/24 03:03:02;;;;;;;23.30;11.98;;;-0.60;99.90;;;;;;5056900;28;20081;-74
2024/01/24 03:05:28;;;;;;;26.25;12.27;;;-0.60;99.90;;;;;;5071831;28;20470;-72
2024/01/24 03:07:54;;;;;;;21.08;10.45;;;-0.60;99.90;;;;;;5071181;28;20485;-72
2024/01/24 03:10:21;;;;;;;24.63;11.63;;;-0.60;99.90;;;;;;5073023;28;20036;-78
2024/01/24 03:12:47;;;;;;;18.73;10.07;;;-0.60;99.90;;;;;;5068478;28;20095;-78
2024/01/24 03:15:12;;;;;;;15.00;8.55;;;-0.60;99.90;;;;;;5052731;28;20049;-78
2024/01/24 03:17:38;;;;;;;22.52;9.88;;;-0.60;99.90;;;;;;5052163;28;20458;-72
2024/01/24 03:20:05;;;;;;;17.02;7.55;;;-0.60;99.90;;;;;;5053490;28;20029;-72
2024/01/24 03:22:31;;;;;;;19.67;7.38;;;-0.40;99.90;;;;;;5052671;28;20029;-79
2024/01/24 03:24:56;;;;;;;16.02;6.60;;;-0.40;99.90;;;;;;5052939;28;20021;-78
2024/01/24 03:27:22;;;;;;;12.60;6.50;;;-0.20;99.90;;;;;;5051943;28;20050;-78
2024/01/24 03:29:48;;;;;;;20.10;5.97;;;0.00;99.90;;;;;;5052513;28;20378;-78
2024/01/24 03:32:14;;;;;;;12.07;5.55;;;0.10;99.90;;;;;;5051017;28;20463;-78
2024/01/24 03:34:40;;;;;;;11.27;6.88;;;0.20;99.90;;;;;;5052238;28;20067;-78
2024/01/24 03:37:06;;;;;;;12.57;6.60;;;0.30;99.90;;;;;;5052726;28;20056;-72
2024/01/24 03:39:32;;;;;;;14.75;6.13;;;0.40;99.90;;;;;;5059246;28;20020;-72
2024/01/24 03:41:57;;;;;;;17.02;6.00;;;0.50;99.90;;;;;;5071962;28;20028;-72
2024/01/24 03:44:23;;;;;;;14.13;5.38;;;0.60;99.90;;;;;;5067566;28;20033;-72
2024/01/24 03:46:49;;;;;;;10.05;4.53;;;0.70;99.90;;;;;;5062319;28;20463;-75
2024/01/24 03:49:15;;;;;;;11.60;5.63;;;0.80;99.90;;;;;;5070193;28;20036;-78
2024/01/24 03:51:40;;;;;;;15.18;5.13;;;0.90;99.90;;;;;;5072128;28;20069;-78
2024/01/24 03:54:06;;;;;;;9.60;4.70;;;1.00;99.90;;;;;;5070127;28;20028;-72
2024/01/24 03:56:32;;;;;;;13.07;4.85;;;1.00;99.90;;;;;;5071027;28;20027;-79
2024/01/24 03:58:57;;;;;;;8.15;4.53;;;1.10;99.90;;;;;;5071987;28;20033;-78
2024/01/24 04:01:23;;;;;;;10.90;5.25;;;1.10;99.90;;;;;;5069308;28;20029;-72
2024/01/24 04:03:49;;;;;;;13.10;4.85;;;1.20;99.90;;;;;;5052437;28;20071;-72
2024/01/24 04:06:14;;;;;;;13.23;5.85;;;1.30;99.90;;;;;;5050845;28;20474;-72
2024/01/24 04:08:43;;;;;;;10.13;5.10;;;1.30;99.90;;;;;;5052773;28;20033;-78
2024/01/24 04:11:09;;;;;;;13.57;5.03;;;1.40;99.90;;;;;;5051289;28;20021;-72
2024/01/24 04:13:34;;;;;;;11.38;4.95;;;1.40;99.90;;;;;;5052454;28;20036;-72
2024/01/24 04:16:00;;;;;;;13.10;4.90;;;1.40;99.90;;;;;;5051339;28;20024;-72
2024/01/24 04:18:26;;;;;;;10.82;5.70;;;1.40;99.90;;;;;;5051157;28;20398;-78
2024/01/24 04:20:52;;;;;;;11.43;4.55;;;1.50;99.90;;;;;;5053012;28;20040;-72
2024/01/24 04:23:18;;;;;;;10.43;4.97;;;1.50;99.90;;;;;;5052682;28;20041;-72
2024/01/24 04:25:43;;;;;;;11.38;4.97;;;1.50;99.90;;;;;;5053065;28;20398;-72
2024/01/24 04:28:09;;;;;;;10.25;4.38;;;1.60;99.90;;;;;;5051754;28;20367;-78
2024/01/24 04:30:35;;;;;;;13.45;4.75;;;1.60;99.90;;;;;;5051792;28;20025;-77
2024/01/24 04:33:00;;;;;;;12.07;4.55;;;1.70;99.90;;;;;;5052362;28;20037;-78
2024/01/24 04:35:26;;;;;;;12.65;4.88;;;1.70;99.90;;;;;;5052264;28;20044;-72
2024/01/24 04:37:52;;;;;;;14.15;5.60;;;1.70;99.90;;;;;;5060020;28;20035;-72
2024/01/24 04:40:17;;;;;;;17.80;6.25;;;1.80;99.90;;;;;;5069855;28;20032;-78
2024/01/24 04:42:43;;;;;;;8.55;5.18;;;1.80;99.90;;;;;;5071657;28;20044;-72
2024/01/24 04:45:10;;;;;;;11.55;4.25;;;1.80;99.90;;;;;;5071281;28;20418;-78
2024/01/24 04:47:38;;;;;;;10.68;4.30;;;1.90;99.90;;;;;;5069946;28;20024;-73
2024/01/24 04:50:04;;;;;;;18.45;6.25;;;1.90;99.90;;;;;;5070762;28;20024;-73
2024/01/24 04:52:30;;;;;;;10.15;4.30;;;1.90;99.90;;;;;;5070691;28;20149;-78
2024/01/24 04:54:56;;;;;;;15.00;4.90;;;2.00;99.90;;;;;;5070497;28;20048;-79
2024/01/24 04:57:22;;;;;;;9.98;4.13;;;2.00;99.90;;;;;;5071274;28;20020;-79
2024/01/24 04:59:47;;;;;;;6.18;3.63;;;2.00;99.90;;;;;;5056960;28;20025;-79
2024/01/24 05:02:13;;;;;;;10.25;4.35;;;2.00;99.90;;;;;;5071624;28;20477;-79
2024/01/24 05:04:38;;;;;;;14.23;5.10;;;2.10;99.90;;;;;;5073173;28;20028;-78
2024/01/24 05:07:04;;;;;;;7.82;4.50;;;2.10;99.90;;;;;;5073370;28;20021;-78
2024/01/24 05:09:30;;;;;;;15.30;5.40;;;2.10;99.90;;;;;;5073469;28;20054;-78
2024/01/24 05:11:55;;;;;;;10.05;5.00;;;2.10;99.90;;;;;;5075529;28;20025;-79
2024/01/24 05:14:21;;;;;;;14.05;5.32;;;2.10;99.90;;;;;;5074884;28;20161;-79
2024/01/24 05:16:49;;;;;;;13.18;4.82;;;2.20;99.90;;;;;;5075272;28;20526;-79
2024/01/24 05:19:15;;;;;;;10.07;5.32;;;2.10;99.90;;;;;;5072576;28;20123;-73
2024/01/24 05:21:44;;;;;;;10.98;4.35;;;2.10;99.90;;;;;;5074911;28;20020;-72
2024/01/24 05:24:10;;;;;;;7.47;4.88;;;2.10;99.90;;;;;;5073029;28;20048;-73
2024/01/24 05:26:36;;;;;;;8.68;4.45;;;2.20;99.90;;;;;;5075043;28;20048;-72
2024/01/24 05:29:04;;;;;;;13.50;5.25;;;2.10;99.90;;;;;;5073974;28;20013;-73
2024/01/24 05:31:30;;;;;;;14.20;4.82;;;2.10;99.90;;;;;;5073095;28;20024;-75
2024/01/24 05:33:56;;;;;;;9.90;4.38;;;2.10;99.90;;;;;;5073132;28;20031;-78
2024/01/24 05:36:22;;;;;;;12.40;5.90;;;2.20;99.90;;;;;;5064376;28;20017;-72
2024/01/24 05:38:48;;;;;;;11.30;5.30;;;2.10;99.90;;;;;;5069957;28;20386;-72
2024/01/24 05:41:13;;;;;;;10.05;4.90;;;2.10;99.90;;;;;;5064629;28;20037;-78
2024/01/24 05:43:39;;;;;;;16.48;5.32;;;2.10;99.90;;;;;;5053984;28;20037;-77
2024/01/24 05:46:05;;;;;;;26.65;7.90;;;2.10;99.90;;;;;;5058958;28;20066;-78
2024/01/24 05:48:30;;;;;;;14.07;5.47;;;2.10;99.90;;;;;;5062631;28;20021;-78
2024/01/24 05:50:56;;;;;;;15.52;6.82;;;2.10;99.90;;;;;;5058182;28;20021;-72
2024/01/24 05:53:23;;;;;;;17.75;5.25;;;2.10;99.90;;;;;;5063030;28;20029;-71
2024/01/24 05:55:48;;;;;;;12.10;5.05;;;2.00;99.90;;;;;;5058898;28;20052;-78
2024/01/24 05:58:14;;;;;;;13.70;4.90;;;2.00;99.90;;;;;;5061348;28;20588;-72
2024/01/24 06:00:39;;;;;;;11.13;5.78;;;2.10;99.90;;;;;;5056087;28;20063;-78
2024/01/24 06:03:05;;;;;;;12.60;5.45;;;2.00;99.90;;;;;;5060374;28;20036;-77
2024/01/24 06:05:31;;;;;;;11.95;5.30;;;2.00;99.90;;;;;;5057117;28;20029;-72
2024/01/24 06:07:56;;;;;;;11.98;4.88;;;2.00;99.90;;;;;;5059362;28;20547;-78
2024/01/24 06:10:22;;;;;;;13.18;4.70;;;1.90;99.90;;;;;;5057479;28;20087;-78
2024/01/24 06:12:47;;;;;;;11.75;4.50;;;1.90;99.90;;;;;;5057231;28;20024;-78
2024/01/24 06:15:13;;;;;;;11.32;5.07;;;1.90;99.90;;;;;;5054447;28;20021;-72
2024/01/24 06:17:39;;;;;;;11.88;5.15;;;1.80;99.90;;;;;;5054137;28;20021;-72
2024/01/24 06:20:05;;;;;;;12.88;4.65;;;1.80;99.90;;;;;;5049362;28;20032;-72
2024/01/24 06:22:31;;;;;;;11.32;4.40;;;1.80;99.90;;;;;;5052951;28;20430;-72
2024/01/24 06:24:57;;;;;;;10.27;4.68;;;1.70;99.90;;;;;;5059680;28;20078;-73
2024/01/24 06:27:23;;;;;;;16.17;6.15;;;1.70;99.90;;;;;;5069117;28;20025;-73
2024/01/24 06:29:51;;;;;;;11.80;4.20;;;1.70;99.90;;;;;;5069788;28;20179;-72
2024/01/24 06:32:16;;;;;;;11.25;5.00;;;1.70;99.90;;;;;;5061754;28;20147;-73
2024/01/24 06:34:42;;;;;;;12.40;5.32;;;1.70;99.90;;;;;;5058318;28;20111;-78
2024/01/24 06:37:07;;;;;;;10.70;4.63;;;1.60;99.90;;;;;;5057610;28;20093;-73
2024/01/24 06:39:33;;;;;;;16.77;5.90;;;1.60;99.90;;;;;;5062772;28;20025;-77
2024/01/24 06:41:59;;;;;;;17.13;6.32;;;1.60;99.90;;;;;;5071137;28;20376;-72
2024/01/24 06:44:26;;;;;;;8.60;4.18;;;1.60;99.90;;;;;;5072056;28;20138;-79
2024/01/24 06:46:51;;;;;;;13.20;5.55;;;1.60;99.90;;;;;;5070765;28;20033;-72
2024/01/24 06:49:17;;;;;;;12.50;5.28;;;1.60;99.90;;;;;;5073182;28;20095;-72
2024/01/24 06:51:43;;;;;;;11.63;5.47;;;1.60;99.90;;;;;;5072122;28;20025;-77
2024/01/24 06:54:09;;;;;;;12.32;6.88;;;1.60;99.90;;;;;;5073256;28;20028;-79
2024/01/24 06:56:35;;;;;;;12.02;4.53;;;1.60;99.90;;;;;;5072062;28;20021;-73
2024/01/24 06:59:02;;;;;;;9.73;4.60;;;1.60;99.90;;;;;;5072923;28;20043;-72
2024/01/24 07:01:28;;;;;;;12.02;4.47;;;1.60;99.90;;;;;;5072315;28;20016;-73
2024/01/24 07:03:53;;;;;;;12.98;5.78;;;1.60;99.90;;;;;;5071732;28;20553;-73
2024/01/24 07:06:19;;;;;;;12.63;5.80;;;1.70;99.90;;;;;;5070915;28;20023;-78
2024/01/24 07:08:45;;;;;;;13.55;6.90;;;1.70;99.90;;;;;;5071280;28;20028;-73
2024/01/24 07:11:11;;;;;;;15.38;6.20;;;1.70;99.90;;;;;;5061636;28;20017;-79
2024/01/24 07:13:37;;;;;;;13.52;5.85;;;1.70;99.90;;;;;;5060816;28;20029;-74
2024/01/24 07:16:04;;;;;;;12.68;5.43;;;1.70;99.90;;;;;;5056329;28;20049;-78
2024/01/24 07:18:33;;;;;;;11.75;5.25;;;1.70;99.90;;;;;;5059496;28;20048;-73
2024/01/24 07:21:03;;;;;;;12.57;5.80;;;1.70;99.90;;;;;;5059226;28;20029;-79
2024/01/24 07:23:28;;;;;;;11.43;6.15;;;1.70;99.90;;;;;;5059475;28;20123;-73
2024/01/24 07:25:54;;;;;;;12.50;6.13;;;1.70;99.90;;;;;;5053232;28;20017;-73
2024/01/24 07:28:22;;;;;;;16.65;7.65;;;1.80;99.90;;;;;;5053383;28;20017;-74
2024/01/24 07:30:48;;;;;;;16.00;6.03;;;1.80;99.90;;;;;;5052951;28;20044;-76
2024/01/24 07:33:14;;;;;;;13.70;7.55;;;1.80;99.90;;;;;;5052497;28;20122;-80
2024/01/24 07:35:40;;;;;;;18.42;6.72;;;1.80;99.90;;;;;;5053455;28;20154;-81
2024/01/24 07:38:06;;;;;;;13.32;6.53;;;1.80;99.90;;;;;;5063365;28;20103;-75
2024/01/24 07:40:32;;;;;;;12.05;5.85;;;1.80;99.90;;;;;;5066298;28;20108;-74
2024/01/24 07:42:57;;;;;;;9.35;5.05;;;1.80;99.90;;;;;;5053358;28;20112;-74
2024/01/24 07:45:23;;;;;;;16.60;6.75;;;1.80;99.90;;;;;;5055317;28;20092;-74
2024/01/24 07:47:50;;;;;;;12.13;5.95;;;1.90;99.90;;;;;;5053418;28;20025;-74
2024/01/24 07:50:15;;;;;;;7.97;5.22;;;1.90;99.90;;;;;;5054319;28;20446;-75
2024/01/24 07:52:42;;;;;;;12.45;6.63;;;1.90;99.90;;;;;;5054726;28;20024;-74
2024/01/24 07:55:08;;;;;;;17.58;6.40;;;1.90;99.90;;;;;;5054568;28;20055;-75
2024/01/24 07:57:33;;;;;;;10.32;6.07;;;1.90;99.90;;;;;;5049311;28;20414;-74
2024/01/24 07:59:59;;;;;;;9.77;5.53;;;1.90;99.90;;;;;;5055670;28;20101;-74
2024/01/24 08:02:25;;;;;;;9.70;5.10;;;1.90;99.90;;;;;;5055773;28;20508;-74
2024/01/24 08:04:50;;;;;;;8.32;4.80;;;1.90;99.90;;;;;;5059214;28;20017;-80
2024/01/24 08:07:16;;;;;;;9.07;5.32;;;1.90;99.90;;;;;;5055455;28;20012;-81
2024/01/24 08:09:42;;;;;;;12.02;6.78;;;1.90;99.90;;;;;;5060064;28;20074;-81
2024/01/24 08:12:08;;;;;;;9.20;5.45;;;2.00;99.90;;;;;;5055265;28;20029;-74
2024/01/24 08:14:34;;;;;;;8.75;6.22;;;2.00;99.90;;;;;;5054686;28;20476;-74
2024/01/24 08:17:03;;;;;;;14.43;7.57;;;1.90;99.90;;;;;;5062544;28;20017;-74
2024/01/24 08:19:29;;;;;;;6.18;5.10;;;2.00;99.90;;;;;;5060490;28;20106;-75
2024/01/24 08:21:55;;;;;;;9.73;5.65;;;2.00;99.90;;;;;;5063587;28;20016;-81
2024/01/24 08:24:21;;;;;;;9.95;5.43;;;2.00;99.90;;;;;;5062761;28;20025;-81
2024/01/24 08:26:47;;;;;;;6.45;4.90;;;2.00;99.90;;;;;;5056800;28;20020;-80
2024/01/24 08:29:13;;;;;;;8.38;4.60;;;2.00;99.90;;;;;;5058656;28;20107;-80
2024/01/24 08:31:38;;;;;;;8.18;5.70;;;2.00;99.90;;;;;;5062071;28;20044;-80
2024/01/24 08:34:04;;;;;;;7.30;5.28;;;2.10;99.90;;;;;;5054033;28;20100;-80
2024/01/24 08:36:30;;;;;;;8.05;5.15;;;2.10;99.90;;;;;;5052696;28;20017;-74
2024/01/24 08:38:55;;;;;;;8.35;5.88;;;2.00;99.90;;;;;;5051941;28;20021;-74
2024/01/24 08:41:21;;;;;;;5.18;4.22;;;2.10;99.90;;;;;;5056308;28;20025;-80
2024/01/24 08:43:47;;;;;;;9.60;5.40;;;2.10;99.90;;;;;;5056783;28;20398;-74
2024/01/24 08:46:12;;;;;;;9.35;5.18;;;2.10;99.90;;;;;;5056508;28;20055;-74
2024/01/24 08:48:39;;;;;;;7.45;5.00;;;2.10;99.90;;;;;;5057674;28;20024;-79
2024/01/24 08:51:04;;;;;;;6.05;4.15;;;2.10;99.90;;;;;;5063047;28;20116;-74
2024/01/24 08:53:30;;;;;;;8.65;5.45;;;2.10;99.90;;;;;;5054262;28;20053;-80
2024/01/24 08:55:56;;;;;;;10.27;6.30;;;2.10;99.90;;;;;;5065518;28;20021;-80
2024/01/24 08:58:21;;;;;;;13.63;6.88;;;2.10;99.90;;;;;;5058898;28;20025;-80
2024/01/24 09:00:47;;;;;;;8.68;5.60;;;2.10;99.90;;;;;;5056478;28;20108;-80
2024/01/24 09:03:13;;;;;;;4.85;4.25;;;2.10;99.90;;;;;;5061207;28;20037;-76
2024/01/24 09:05:39;;;;;;;7.97;5.07;;;2.10;99.90;;;;;;5062338;28;20021;-80
2024/01/24 09:08:04;;;;;;;8.30;4.72;;;2.20;99.90;;;;;;5053935;28;20024;-80
2024/01/24 09:10:30;;;;;;;7.40;4.20;;;2.20;99.90;;;;;;5059190;28;20042;-80
2024/01/24 09:12:56;;;;;;;7.03;5.10;;;2.20;99.90;;;;;;5046736;28;20390;-79
2024/01/24 09:15:22;;;;;;;8.40;4.47;;;2.20;99.90;;;;;;5056107;28;20043;-80
2024/01/24 09:17:48;;;;;;;5.80;4.03;;;2.20;99.90;;;;;;5056631;28;20059;-74
2024/01/24 09:20:14;;;;;;;5.45;4.00;;;2.20;99.90;;;;;;5056148;28;20025;-80
2024/01/24 09:22:39;;;;;;;6.53;4.30;;;2.20;99.90;;;;;;5057839;28;20029;-74
2024/01/24 09:25:05;;;;;;;7.80;4.60;;;2.20;99.90;;;;;;5055805;28;20048;-74
2024/01/24 09:27:31;;;;;;;11.00;8.25;;;2.30;99.90;;;;;;5057338;28;20029;-75
2024/01/24 09:29:57;;;;;;;11.40;7.43;;;2.30;99.90;;;;;;5057401;28;20025;-74
2024/01/24 09:32:23;;;;;;;9.48;6.53;;;2.30;99.90;;;;;;5058814;28;20095;-74
2024/01/24 09:34:49;;;;;;;23.17;10.40;;;2.30;99.90;;;;;;5056241;28;20036;-80
2024/01/24 09:37:15;;;;;;;72.78;45.17;;;2.30;99.90;;;;;;5060062;28;20095;-80
2024/01/24 09:39:40;;;;;;;64.90;42.83;;;2.30;99.90;;;;;;5075043;28;20112;-80
2024/01/24 09:42:18;;;;;;;51.38;33.85;;;2.30;99.90;;;;;;5057108;28;20447;-74
2024/01/24 09:44:47;;;;;;;17.00;10.18;;;2.40;99.90;;;;;;5056159;28;20052;-80
2024/01/24 09:47:13;;;;;;;19.70;15.15;;;2.40;99.90;;;;;;5051843;28;20067;-80
2024/01/24 09:49:39;;;;;;;13.50;7.93;;;2.40;99.90;;;;;;5057922;28;20414;-80
2024/01/24 09:52:07;;;;;;;15.55;8.80;;;2.50;99.90;;;;;;5057831;28;20430;-74
2024/01/24 09:54:35;;;;;;;13.40;8.50;;;2.50;99.90;;;;;;5072266;28;20420;-74
2024/01/24 09:57:01;;;;;;;11.32;7.93;;;2.50;99.90;;;;;;5057213;28;20044;-81
2024/01/24 09:59:27;;;;;;;18.10;9.95;;;2.60;99.90;;;;;;5071120;28;20485;-81
2024/01/24 10:01:53;;;;;;;13.13;7.07;;;2.60;99.90;;;;;;5062328;28;20116;-80
2024/01/24 10:04:19;;;;;;;15.38;8.90;;;2.70;99.90;;;;;;5059442;28;20375;-79
2024/01/24 10:06:46;;;;;;;13.82;9.13;;;2.70;99.90;;;;;;5055840;28;20036;-72
2024/01/24 10:09:11;;;;;;;18.33;10.32;;;2.70;99.90;;;;;;5054007;28;20029;-79
2024/01/24 10:11:37;;;;;;;13.05;7.57;;;2.70;99.90;;;;;;5054151;28;20383;-80
2024/01/24 10:14:03;;;;;;;14.65;8.85;;;2.80;99.90;;;;;;5056989;28;20032;-80
2024/01/24 10:16:28;;;;;;;21.08;11.55;;;2.70;99.90;;;;;;5054347;28;20155;-79
2024/01/24 10:18:57;;;;;;;17.67;9.48;;;2.80;99.90;;;;;;5060685;28;20056;-73
2024/01/24 10:21:24;;;;;;;11.75;7.93;;;2.80;99.90;;;;;;5054026;28;20025;-73
2024/01/24 10:23:52;;;;;;;15.45;9.60;;;2.90;99.90;;;;;;5054532;28;20052;-80
2024/01/24 10:26:19;;;;;;;20.17;9.15;;;2.90;99.90;;;;;;5061859;28;20031;-74
2024/01/24 10:28:45;;;;;;;10.00;7.30;;;3.00;99.90;;;;;;5060499;28;20013;-80
2024/01/24 10:31:11;;;;;;;15.63;9.65;;;3.00;99.90;;;;;;5062705;28;20100;-73
2024/01/24 10:33:38;;;;;;;17.90;8.63;;;3.00;99.90;;;;;;5059978;28;20021;-74
2024/01/24 10:36:05;;;;;;;16.83;8.18;;;3.10;99.90;;;;;;5054990;28;20036;-80
2024/01/24 10:38:31;;;;;;;15.98;9.82;;;3.20;99.90;;;;;;5066020;28;20382;-80
2024/01/24 10:41:01;;;;;;;22.00;12.50;;;3.20;99.90;;;;;;5053165;28;20450;-82
2024/01/24 10:43:28;;;;;;;20.77;10.85;;;3.20;99.90;;;;;;5060987;28;20497;-80
2024/01/24 10:45:56;;;;;;;12.65;7.90;;;3.20;99.90;;;;;;5054899;28;20033;-79
2024/01/24 10:48:22;;;;;;;12.25;8.43;;;3.20;99.90;;;;;;5065318;28;20024;-79
2024/01/24 10:50:48;;;;;;;12.65;9.45;;;3.30;99.90;;;;;;5064084;28;20029;-81
2024/01/24 10:53:14;;;;;;;21.90;14.48;;;3.20;99.90;;;;;;5057461;28;20029;-75
2024/01/24 10:55:41;;;;;;;31.25;12.30;;;3.30;99.90;;;;;;5063805;28;20036;-75
2024/01/24 10:58:10;;;;;;;15.45;11.32;;;3.30;99.90;;;;;;5056936;28;20078;-75
2024/01/24 11:00:37;;;;;;;11.02;8.10;;;3.40;99.90;;;;;;5070125;28;20493;-80
2024/01/24 11:03:03;;;;;;;28.55;12.15;;;3.40;99.90;;;;;;5065014;28;20095;-75
2024/01/24 11:05:40;;;;;;;15.05;9.70;;;3.50;99.90;;;;;;5051573;28;20016;-75
2024/01/24 11:08:31;;;;;;;12.00;8.18;;;3.50;99.90;;;;;;5054155;28;20017;-74
2024/01/24 11:11:03;;;;;;;11.68;7.55;;;3.50;99.90;;;;;;5054679;28;20025;-74
2024/01/24 11:13:29;;;;;;;12.00;6.75;;;3.50;99.90;;;;;;5054877;28;20027;-75
2024/01/24 11:15:55;;;;;;;24.27;10.60;;;3.50;99.90;;;;;;5051032;28;20039;-75
2024/01/24 11:18:28;;;;;;;15.77;9.88;;;3.50;99.90;;;;;;5055824;28;20045;-80
2024/01/24 11:20:56;;;;;;;12.70;8.38;;;3.60;99.90;;;;;;5052234;28;20017;-80
2024/01/24 11:23:45;;;;;;;25.48;12.50;;;3.60;99.90;;;;;;5050172;28;20053;-81
2024/01/24 11:26:32;;;;;;;30.15;11.50;;;3.60;99.90;;;;;;5054142;28;20477;-80
2024/01/24 11:29:11;;;;;;;29.65;14.82;;;3.60;99.90;;;;;;5052370;28;20548;-80
2024/01/24 11:31:42;;;;;;;23.65;11.45;;;3.70;99.90;;;;;;5051421;28;20051;-75
2024/01/24 11:34:12;;;;;;;21.60;12.02;;;3.70;99.90;;;;;;5049978;28;20029;-81
2024/01/24 11:36:50;;;;;;;43.25;15.02;;;3.80;99.90;;;;;;5048262;28;20432;-75
2024/01/24 11:39:37;;;;;;;28.15;11.02;;;3.80;99.90;;;;;;5035955;28;20017;-80
2024/01/24 11:42:21;;;;;;;22.38;11.43;;;3.80;99.90;;;;;;5051763;28;20507;-75
2024/01/24 11:44:47;;;;;;;19.80;11.15;;;3.90;99.90;;;;;;5051431;28;20029;-75
2024/01/24 11:47:13;;;;;;;17.10;10.52;;;3.80;99.90;;;;;;5051864;28;20143;-80
2024/01/24 11:49:39;;;;;;;58.20;20.38;;;3.90;99.90;;;;;;5051789;28;20108;-80
2024/01/24 11:52:05;;;;;;;21.55;9.25;;;3.90;99.90;;;;;;5052715;28;20088;-80
2024/01/24 11:54:31;;;;;;;32.00;13.07;;;3.90;99.90;;;;;;5051455;28;20505;-75
2024/01/24 11:56:58;;;;;;;40.53;22.23;;;3.90;99.90;;;;;;5057983;28;20020;-75
2024/01/24 11:59:23;;;;;;;26.98;15.25;;;4.00;99.90;;;;;;5071029;28;20032;-80
2024/01/24 12:01:49;;;;;;;65.32;21.85;;;4.00;99.90;;;;;;5064905;28;20078;-75
2024/01/24 12:04:15;;;;;;;33.38;16.05;;;4.10;99.90;;;;;;5062616;28;20449;-75
2024/01/24 12:06:41;;;;;;;39.35;18.27;;;4.10;99.90;;;;;;5055216;28;20025;-75
2024/01/24 12:09:09;;;;;;;29.55;16.58;;;4.00;99.90;;;;;;5070790;28;20020;-75
2024/01/24 12:11:34;;;;;;;35.10;12.63;;;4.10;99.90;;;;;;5052189;28;20023;-79
2024/01/24 12:14:01;;;;;;;29.38;11.77;;;4.20;99.90;;;;;;5053647;28;20095;-80
2024/01/24 12:16:28;;;;;;;35.15;18.67;;;4.20;99.90;;;;;;5056243;28;20025;-80
2024/01/24 12:18:54;;;;;;;73.60;34.70;;;4.30;99.90;;;;;;5055626;28;20049;-75
2024/01/24 12:21:21;;;;;;;13.20;6.25;;;4.50;99.90;;;;;;5056577;28;20062;-79
2024/01/24 12:23:47;;;;;;;19.58;8.60;;;4.50;99.90;;;;;;5055278;28;20517;-76
2024/01/24 12:26:15;;;;;;;19.38;12.23;;;4.50;99.90;;;;;;5054888;28;20386;-75
2024/01/24 12:28:40;;;;;;;48.58;20.27;;;4.50;99.90;;;;;;5056556;28;20028;-75
2024/01/24 12:31:06;;;;;;;34.28;13.02;;;4.60;99.90;;;;;;5056642;28;20025;-80
2024/01/24 12:33:35;;;;;;;20.42;10.23;;;4.60;99.90;;;;;;5046474;28;20041;-82
2024/01/24 12:36:04;;;;;;;51.03;27.80;;;4.70;99.90;;;;;;5054407;28;20025;-79
2024/01/24 12:38:30;;;;;;;45.97;15.10;;;4.70;99.90;;;;;;5053809;28;20045;-76